Time;durP1;ratioP1;P1;durP2;ratioP2;P2;SDS_P1;SDS_P2;PMS_P1;PMS_P2;Temp;Humidity;BMP_temperature;BMP_pressure;BME280_temperature;BME280_humidity;BME280_pressure;Samples;Min_cycle;Max_cycle;Signal;HPM_P1;HPM_P2
2022/07/23 00:00:56;;;;;;;10.15;8.10;;;25.70;99.90;;;;;;5050291;28;20632;-82
2022/07/23 00:03:46;;;;;;;10.65;7.28;;;25.70;99.90;;;;;;5052693;28;20216;-83
2022/07/23 00:06:35;;;;;;;10.95;8.02;;;25.60;99.90;;;;;;5073680;28;20239;-84
2022/07/23 00:09:23;;;;;;;10.02;7.75;;;25.50;99.90;;;;;;5031851;28;20215;-82
2022/07/23 00:12:12;;;;;;;10.98;7.70;;;25.50;99.90;;;;;;5060027;28;20702;-81
2022/07/23 00:15:00;;;;;;;9.30;7.13;;;25.50;99.90;;;;;;5057507;28;20227;-80
2022/07/23 00:17:49;;;;;;;8.70;7.50;;;25.50;99.90;;;;;;5065447;28;20250;-83
2022/07/23 00:20:39;;;;;;;8.88;7.97;;;25.40;99.90;;;;;;5050015;28;20591;-83
2022/07/23 00:23:28;;;;;;;11.25;7.55;;;25.50;99.90;;;;;;5051821;28;20267;-84
2022/07/23 00:26:17;;;;;;;11.80;8.20;;;25.50;99.90;;;;;;5052962;28;20232;-83
2022/07/23 00:29:06;;;;;;;11.18;8.02;;;25.40;99.90;;;;;;5061402;28;20227;-84
2022/07/23 00:31:54;;;;;;;11.52;8.32;;;25.50;99.90;;;;;;5081017;28;20231;-83
2022/07/23 00:34:43;;;;;;;9.20;7.95;;;25.50;99.90;;;;;;5054959;28;20220;-83
2022/07/23 00:37:33;;;;;;;10.55;8.18;;;25.50;99.90;;;;;;5052396;28;20269;-83
2022/07/23 00:40:22;;;;;;;8.40;7.60;;;25.50;99.90;;;;;;5065714;28;20224;-84
2022/07/23 00:43:10;;;;;;;8.52;7.50;;;25.50;99.90;;;;;;5046548;28;20243;-84
2022/07/23 00:45:59;;;;;;;10.57;7.85;;;25.50;99.90;;;;;;5079093;28;20297;-83
2022/07/23 00:48:49;;;;;;;8.65;7.78;;;25.50;99.90;;;;;;5054286;28;20590;-83
2022/07/23 00:51:38;;;;;;;9.85;7.40;;;25.30;99.90;;;;;;5066334;28;20223;-83
2022/07/23 00:54:28;;;;;;;10.55;8.15;;;25.30;99.90;;;;;;5069656;28;20231;-84
2022/07/23 00:57:17;;;;;;;9.98;7.72;;;25.30;99.90;;;;;;5063860;28;20232;-83
2022/07/23 01:00:09;;;;;;;11.45;7.68;;;25.30;99.90;;;;;;5077201;28;20220;-83
2022/07/23 01:02:58;;;;;;;8.02;7.22;;;25.30;99.90;;;;;;5050092;28;20304;-83
2022/07/23 01:05:47;;;;;;;8.63;7.88;;;25.30;99.90;;;;;;5046925;28;20307;-83
2022/07/23 01:08:36;;;;;;;9.25;8.30;;;25.20;99.90;;;;;;5044274;28;20254;-84
2022/07/23 01:11:26;;;;;;;8.95;8.02;;;25.10;99.90;;;;;;5048853;28;20259;-84
2022/07/23 01:14:16;;;;;;;15.15;8.90;;;25.20;99.90;;;;;;5050492;28;20220;-83
2022/07/23 01:17:05;;;;;;;11.35;8.32;;;25.20;99.90;;;;;;5071330;28;20212;-83
2022/07/23 01:19:55;;;;;;;11.60;8.23;;;25.10;99.90;;;;;;5053258;28;20307;-84
2022/07/23 01:22:50;;;;;;;11.82;7.88;;;25.10;99.90;;;;;;5053268;28;20284;-83
2022/07/23 01:25:38;;;;;;;9.15;8.23;;;25.00;99.90;;;;;;5064747;28;20223;-83
2022/07/23 01:28:27;;;;;;;11.85;8.52;;;24.90;99.90;;;;;;5068043;28;20223;-83
2022/07/23 01:31:19;;;;;;;8.93;8.00;;;24.80;99.90;;;;;;5060448;28;20231;-85
2022/07/23 01:34:07;;;;;;;9.70;8.52;;;24.70;99.90;;;;;;5105021;28;20212;-84
2022/07/23 01:36:56;;;;;;;9.80;8.85;;;24.70;99.90;;;;;;5086490;28;20212;-84
2022/07/23 01:39:47;;;;;;;11.82;8.73;;;24.60;99.90;;;;;;5056139;28;20728;-84
2022/07/23 01:42:36;;;;;;;8.93;8.13;;;24.60;99.90;;;;;;5077811;28;20216;-83
2022/07/23 01:45:26;;;;;;;10.73;8.30;;;24.60;99.90;;;;;;5050864;28;20231;-84
2022/07/23 01:48:15;;;;;;;12.07;8.48;;;24.60;99.90;;;;;;5075023;28;20224;-84
2022/07/23 01:51:18;;;;;;;10.85;8.90;;;24.50;99.90;;;;;;5054085;28;20242;-83
2022/07/23 01:54:15;;;;;;;8.95;8.10;;;24.40;99.90;;;;;;5048138;28;20694;-84
2022/07/23 01:57:05;;;;;;;12.55;8.82;;;24.40;99.90;;;;;;5048724;28;20221;-84
2022/07/23 01:59:55;;;;;;;9.23;8.30;;;24.30;99.90;;;;;;5042641;28;20223;-80
2022/07/23 02:02:45;;;;;;;9.10;8.20;;;24.40;99.90;;;;;;5061932;28;20238;-80
2022/07/23 02:05:34;;;;;;;9.70;8.32;;;24.50;99.90;;;;;;5061152;28;20281;-80
2022/07/23 02:08:23;;;;;;;13.07;9.50;;;24.40;99.90;;;;;;5056747;28;20289;-80
2022/07/23 02:11:11;;;;;;;10.52;8.57;;;24.30;99.90;;;;;;5050528;28;20275;-80
2022/07/23 02:14:01;;;;;;;12.52;9.55;;;24.20;99.90;;;;;;5059347;28;20227;-80
2022/07/23 02:16:50;;;;;;;11.80;8.80;;;24.20;99.90;;;;;;5041237;28;20753;-80
2022/07/23 02:19:39;;;;;;;12.13;9.40;;;24.10;99.90;;;;;;5055391;28;20269;-80
2022/07/23 02:22:27;;;;;;;14.88;9.23;;;24.00;99.90;;;;;;5059056;28;20228;-80
2022/07/23 02:25:16;;;;;;;12.98;9.70;;;24.00;99.90;;;;;;5047540;28;20944;-79
2022/07/23 02:28:05;;;;;;;15.15;10.80;;;23.90;99.90;;;;;;5045520;28;20226;-80
2022/07/23 02:30:56;;;;;;;11.52;9.95;;;23.70;99.90;;;;;;5060456;28;20240;-80
2022/07/23 02:33:44;;;;;;;11.32;10.10;;;23.70;99.90;;;;;;5043982;28;20728;-79
2022/07/23 02:36:33;;;;;;;12.18;10.80;;;23.70;99.90;;;;;;5042046;28;20350;-79
2022/07/23 02:39:24;;;;;;;14.85;10.50;;;23.80;99.90;;;;;;5038970;28;20220;-80
2022/07/23 02:42:12;;;;;;;12.02;10.57;;;23.70;99.90;;;;;;5044801;28;20568;-80
2022/07/23 02:45:02;;;;;;;12.10;10.90;;;23.60;99.90;;;;;;5058324;28;20224;-80
2022/07/23 02:47:52;;;;;;;14.52;11.07;;;23.60;99.90;;;;;;5047714;28;20220;-80
2022/07/23 02:50:41;;;;;;;12.82;10.68;;;23.50;99.90;;;;;;5043814;28;20216;-80
2022/07/23 02:53:32;;;;;;;12.75;10.73;;;23.50;99.90;;;;;;5057332;28;20223;-80
2022/07/23 02:56:20;;;;;;;14.55;11.35;;;23.30;99.90;;;;;;5041973;28;20362;-80
2022/07/23 02:59:09;;;;;;;18.65;11.80;;;23.40;99.90;;;;;;5057171;28;20221;-83
2022/07/23 03:01:58;;;;;;;15.05;10.93;;;23.30;99.90;;;;;;5054443;28;20228;-83
2022/07/23 03:04:51;;;;;;;16.02;10.70;;;23.30;99.90;;;;;;5084630;28;20219;-82
2022/07/23 03:07:39;;;;;;;14.02;11.27;;;23.30;99.90;;;;;;5069163;28;20277;-84
2022/07/23 03:10:28;;;;;;;16.83;11.43;;;23.20;99.90;;;;;;5056549;28;20978;-83
2022/07/23 03:13:16;;;;;;;14.18;12.02;;;23.20;99.90;;;;;;5067314;28;20220;-87
2022/07/23 03:16:06;;;;;;;15.98;12.00;;;23.20;99.90;;;;;;5051597;28;20299;-83
2022/07/23 03:18:57;;;;;;;18.80;12.07;;;23.10;99.90;;;;;;5065899;28;20256;-83
2022/07/23 03:21:49;;;;;;;16.98;11.38;;;23.20;99.90;;;;;;5045610;28;20223;-83
2022/07/23 03:24:56;;;;;;;17.15;11.82;;;23.20;99.90;;;;;;5060548;28;20228;-84
2022/07/23 03:27:47;;;;;;;15.25;12.40;;;23.20;99.90;;;;;;5050917;28;20262;-86
2022/07/23 03:30:36;;;;;;;14.70;11.80;;;23.20;99.90;;;;;;5080885;28;20220;-83
2022/07/23 03:33:25;;;;;;;15.50;11.73;;;23.20;99.90;;;;;;5055296;28;20311;-83
2022/07/23 03:36:14;;;;;;;15.50;11.23;;;23.20;99.90;;;;;;5066117;28;20219;-83
2022/07/23 03:39:07;;;;;;;14.57;11.70;;;23.20;99.90;;;;;;5053505;28;20310;-84
2022/07/23 03:42:00;;;;;;;14.52;12.20;;;23.20;99.90;;;;;;5054687;28;20231;-85
2022/07/23 03:44:49;;;;;;;13.57;12.07;;;23.20;99.90;;;;;;5065942;28;20216;-83
2022/07/23 03:47:38;;;;;;;18.67;12.30;;;23.20;99.90;;;;;;5063057;28;20220;-83
2022/07/23 03:50:27;;;;;;;15.35;11.98;;;23.30;99.90;;;;;;5078017;28;20224;-84
2022/07/23 03:53:15;;;;;;;15.52;11.95;;;23.30;99.90;;;;;;5057613;28;20232;-84
2022/07/23 03:56:07;;;;;;;15.77;12.15;;;23.40;99.90;;;;;;5051661;28;20213;-83
2022/07/23 03:58:55;;;;;;;15.05;12.20;;;23.40;99.90;;;;;;5055550;28;20218;-83
2022/07/23 04:01:44;;;;;;;14.75;12.05;;;23.30;99.90;;;;;;5058864;28;20228;-84
2022/07/23 04:04:33;;;;;;;17.25;12.82;;;23.40;99.90;;;;;;5076567;28;20224;-83
2022/07/23 04:07:22;;;;;;;14.13;11.90;;;23.40;99.90;;;;;;5063408;28;20235;-84
2022/07/23 04:10:12;;;;;;;15.48;11.90;;;23.40;99.90;;;;;;5080011;28;20707;-83
2022/07/23 04:13:02;;;;;;;17.13;11.38;;;23.60;99.90;;;;;;5046733;28;20216;-80
2022/07/23 04:15:51;;;;;;;16.30;11.63;;;23.60;99.90;;;;;;5046792;28;20227;-80
2022/07/23 04:18:40;;;;;;;15.45;11.73;;;23.70;99.90;;;;;;5041309;28;20239;-80
2022/07/23 04:21:37;;;;;;;14.63;11.85;;;23.70;99.90;;;;;;5046348;28;20698;-79
2022/07/23 04:24:25;;;;;;;13.80;11.60;;;23.70;99.90;;;;;;5046749;28;20227;-80
2022/07/23 04:27:14;;;;;;;14.32;12.10;;;23.70;99.90;;;;;;5057863;28;20235;-80
2022/07/23 04:30:06;;;;;;;17.77;11.68;;;23.80;99.90;;;;;;5053010;28;20217;-80
2022/07/23 04:32:56;;;;;;;14.13;12.32;;;23.80;99.90;;;;;;5080014;28;20208;-80
2022/07/23 04:35:48;;;;;;;14.07;12.13;;;23.90;99.90;;;;;;5062520;28;20208;-81
2022/07/23 04:38:40;;;;;;;14.00;12.30;;;23.90;99.90;;;;;;5066260;28;20637;-82
2022/07/23 04:41:29;;;;;;;19.23;12.93;;;24.00;99.90;;;;;;5083041;28;20244;-84
2022/07/23 04:44:18;;;;;;;15.45;12.35;;;24.10;99.90;;;;;;5058727;28;20338;-84
2022/07/23 04:47:10;;;;;;;16.77;11.80;;;24.10;99.90;;;;;;5072968;28;20231;-88
2022/07/23 04:50:03;;;;;;;15.48;11.55;;;24.20;99.90;;;;;;5061691;28;20265;-84
2022/07/23 04:52:52;;;;;;;15.20;11.65;;;24.20;99.90;;;;;;5067884;28;20571;-82
2022/07/23 04:55:40;;;;;;;17.25;12.43;;;24.20;99.90;;;;;;5062139;28;20311;-84
2022/07/23 04:58:29;;;;;;;13.43;11.80;;;24.20;99.90;;;;;;5049708;28;20224;-84
2022/07/23 05:01:18;;;;;;;13.98;12.05;;;24.20;99.90;;;;;;5047301;28;20303;-86
2022/07/23 05:04:08;;;;;;;16.95;13.07;;;24.50;99.90;;;;;;5007955;28;1193846;-84
2022/07/23 05:06:59;;;;;;;13.93;12.13;;;24.60;99.90;;;;;;5048932;28;20583;-80
2022/07/23 05:09:47;;;;;;;13.55;12.23;;;24.70;99.90;;;;;;5048447;28;20216;-80
2022/07/23 05:12:36;;;;;;;16.10;12.55;;;24.90;99.90;;;;;;5063691;28;20220;-84
2022/07/23 05:15:26;;;;;;;13.05;11.68;;;24.90;99.90;;;;;;5065494;28;20703;-83
2022/07/23 05:18:15;;;;;;;16.42;11.52;;;25.00;99.90;;;;;;5091118;28;20217;-83
2022/07/23 05:21:09;;;;;;;17.38;11.77;;;25.00;99.90;;;;;;5083090;28;20227;-84
2022/07/23 05:23:58;;;;;;;15.68;11.93;;;25.00;99.90;;;;;;5059921;28;20227;-80
2022/07/23 05:26:47;;;;;;;15.85;11.55;;;25.20;99.90;;;;;;5059717;28;20220;-84
2022/07/23 05:29:36;;;;;;;15.27;11.43;;;25.30;99.90;;;;;;5073238;28;20209;-83
2022/07/23 05:32:25;;;;;;;15.00;11.70;;;25.80;99.90;;;;;;5051333;28;20232;-84
2022/07/23 05:35:27;;;;;;;14.30;11.35;;;26.00;99.90;;;;;;5045758;28;20272;-84
2022/07/23 05:38:31;;;;;;;13.65;11.15;;;25.90;99.90;;;;;;5075927;28;20224;-80
2022/07/23 05:41:20;;;;;;;13.52;11.02;;;25.80;99.90;;;;;;5073580;28;20228;-79
2022/07/23 05:44:09;;;;;;;12.05;10.63;;;25.70;99.90;;;;;;5059458;28;20232;-81
2022/07/23 05:47:00;;;;;;;18.85;11.52;;;25.70;99.90;;;;;;5044124;28;20251;-83
2022/07/23 05:49:50;;;;;;;14.23;11.00;;;25.80;99.90;;;;;;5065267;28;20307;-83
2022/07/23 05:52:50;;;;;;;14.30;11.13;;;26.00;99.90;;;;;;5060133;28;20216;-84
2022/07/23 05:56:08;;;;;;;13.07;10.60;;;26.00;99.90;;;;;;5097154;28;20269;-84
2022/07/23 05:58:58;;;;;;;11.93;10.48;;;26.10;99.90;;;;;;5049545;28;20224;-84
2022/07/23 06:01:47;;;;;;;11.60;10.13;;;26.20;99.90;;;;;;5063371;28;20729;-83
2022/07/23 06:04:37;;;;;;;13.63;10.27;;;26.40;99.90;;;;;;5041165;28;20221;-83
2022/07/23 06:07:43;;;;;;;13.85;10.68;;;27.50;99.90;;;;;;5023544;28;20684;-84
2022/07/23 06:10:34;;;;;;;12.15;9.88;;;28.70;99.90;;;;;;5016588;28;20710;-84
2022/07/23 06:13:24;;;;;;;12.75;9.70;;;28.20;99.90;;;;;;5041512;28;20221;-83
2022/07/23 06:16:13;;;;;;;17.52;11.35;;;27.80;99.90;;;;;;5028902;28;20235;-80
2022/07/23 06:19:01;;;;;;;12.57;10.75;;;27.50;99.90;;;;;;5040011;28;20233;-80
2022/07/23 06:21:52;;;;;;;15.63;10.10;;;27.20;99.90;;;;;;5027257;28;20860;-80
2022/07/23 06:24:40;;;;;;;12.63;10.50;;;27.20;99.90;;;;;;5025434;28;20259;-79
2022/07/23 06:27:29;;;;;;;11.65;10.48;;;27.10;99.90;;;;;;5023703;28;20231;-81
2022/07/23 06:30:20;;;;;;;11.80;10.02;;;27.30;99.90;;;;;;5040608;28;20229;-80
2022/07/23 06:33:09;;;;;;;11.88;9.30;;;27.30;99.90;;;;;;5041552;28;20233;-80
2022/07/23 06:35:57;;;;;;;12.82;9.00;;;27.30;99.90;;;;;;5041700;28;20224;-80
2022/07/23 06:38:46;;;;;;;14.02;9.27;;;27.30;99.90;;;;;;5043047;28;20228;-80
2022/07/23 06:41:45;;;;;;;10.15;9.10;;;27.40;99.90;;;;;;5030929;28;20255;-80
2022/07/23 06:44:38;;;;;;;16.20;9.82;;;27.60;99.90;;;;;;5031881;28;20287;-84
2022/07/23 06:47:30;;;;;;;13.40;9.43;;;27.60;99.90;;;;;;5029764;28;20220;-84
2022/07/23 06:50:19;;;;;;;10.30;9.27;;;27.60;99.90;;;;;;5029688;28;20771;-84
2022/07/23 06:53:10;;;;;;;11.02;9.07;;;27.70;99.90;;;;;;5038329;28;20227;-83
2022/07/23 06:56:02;;;;;;;12.57;9.05;;;27.80;99.90;;;;;;5036536;28;20244;-80
2022/07/23 06:58:50;;;;;;;10.60;8.98;;;27.80;99.90;;;;;;5030980;28;20225;-84
2022/07/23 07:01:39;;;;;;;11.35;9.20;;;27.90;99.90;;;;;;5033972;28;20220;-83
2022/07/23 07:04:29;;;;;;;12.30;8.70;;;28.00;99.90;;;;;;5023967;28;20713;-84
2022/07/23 07:07:18;;;;;;;9.65;8.75;;;28.10;99.90;;;;;;5051074;28;20601;-84
2022/07/23 07:10:08;;;;;;;10.30;9.40;;;28.30;99.90;;;;;;5054961;28;20298;-84
2022/07/23 07:13:03;;;;;;;11.43;9.15;;;28.30;99.90;;;;;;5045351;28;20317;-84
2022/07/23 07:15:52;;;;;;;14.52;8.93;;;28.40;99.90;;;;;;5058166;28;20205;-84
2022/07/23 07:18:40;;;;;;;11.18;9.00;;;28.50;99.90;;;;;;5045312;28;20246;-85
2022/07/23 07:21:30;;;;;;;9.13;8.23;;;28.80;99.90;;;;;;5062898;28;20354;-84
2022/07/23 07:24:19;;;;;;;11.07;8.85;;;29.00;99.90;;;;;;5038743;28;20224;-84
2022/07/23 07:27:07;;;;;;;10.75;9.25;;;29.20;99.90;;;;;;5045323;28;20843;-84
2022/07/23 07:29:56;;;;;;;10.82;8.68;;;29.30;99.90;;;;;;5034436;28;20235;-81
2022/07/23 07:32:45;;;;;;;9.73;8.73;;;29.50;99.40;;;;;;5029329;28;20224;-81
2022/07/23 07:35:46;;;;;;;9.70;8.80;;;29.70;99.90;;;;;;5023938;28;20217;-81
2022/07/23 07:38:37;;;;;;;10.45;8.27;;;30.00;99.50;;;;;;5044020;28;20229;-81
2022/07/23 07:41:26;;;;;;;11.73;8.02;;;30.10;98.90;;;;;;5043308;28;20880;-80
2022/07/23 07:44:14;;;;;;;13.80;7.70;;;30.40;94.60;;;;;;5038337;28;20219;-81
2022/07/23 07:47:03;;;;;;;10.13;8.23;;;30.70;96.10;;;;;;5024665;28;20212;-81
2022/07/23 07:49:52;;;;;;;10.15;7.70;;;31.20;94.20;;;;;;5034030;28;20216;-84
2022/07/23 07:52:40;;;;;;;9.18;8.27;;;31.80;92.50;;;;;;5048889;28;20276;-85
2022/07/23 07:55:31;;;;;;;11.60;8.20;;;31.80;91.10;;;;;;5036714;28;20216;-84
2022/07/23 07:58:20;;;;;;;10.20;8.45;;;32.10;90.60;;;;;;5057253;28;20254;-83
2022/07/23 08:01:08;;;;;;;9.10;8.20;;;32.70;87.10;;;;;;5050431;28;20236;-84
2022/07/23 08:03:57;;;;;;;10.40;8.20;;;32.90;83.70;;;;;;5059367;28;20235;-81
2022/07/23 08:06:47;;;;;;;14.85;8.55;;;33.10;86.20;;;;;;5073558;28;20249;-80
2022/07/23 08:09:35;;;;;;;9.32;8.38;;;33.40;86.10;;;;;;5062654;28;20243;-84
2022/07/23 08:12:25;;;;;;;9.25;7.63;;;33.70;84.20;;;;;;5062679;28;20710;-84
2022/07/23 08:15:16;;;;;;;9.70;8.30;;;33.90;79.50;;;;;;5062624;28;20223;-83
2022/07/23 08:18:05;;;;;;;9.48;8.02;;;34.10;79.60;;;;;;5065633;28;20220;-80
2022/07/23 08:20:54;;;;;;;8.80;8.00;;;34.40;79.70;;;;;;5048437;28;20223;-79
2022/07/23 08:23:42;;;;;;;9.43;7.90;;;34.70;76.10;;;;;;5063778;28;20369;-80
2022/07/23 08:26:32;;;;;;;9.38;8.05;;;34.80;72.80;;;;;;5060992;28;20224;-80
2022/07/23 08:29:22;;;;;;;8.10;7.35;;;34.90;72.00;;;;;;5072562;28;20718;-83
2022/07/23 08:32:14;;;;;;;9.05;7.80;;;35.00;71.80;;;;;;5055750;28;20220;-83
2022/07/23 08:35:25;;;;;;;12.60;8.30;;;35.20;74.00;;;;;;5058481;28;20223;-81
2022/07/23 08:38:16;;;;;;;9.70;8.23;;;35.40;72.00;;;;;;5077823;28;20221;-84
2022/07/23 08:41:06;;;;;;;8.15;7.45;;;35.50;71.40;;;;;;5065347;28;20802;-83
2022/07/23 08:43:55;;;;;;;8.98;8.07;;;35.60;71.30;;;;;;5061632;28;20302;-84
2022/07/23 08:46:45;;;;;;;8.82;7.90;;;35.70;70.40;;;;;;5061225;28;20227;-84
2022/07/23 08:49:34;;;;;;;8.23;7.38;;;35.80;68.30;;;;;;5048541;28;20629;-82
2022/07/23 08:52:24;;;;;;;8.07;7.32;;;36.10;67.70;;;;;;5047498;28;20231;-84
2022/07/23 08:55:17;;;;;;;11.10;7.82;;;36.00;67.50;;;;;;5031020;28;20265;-84
2022/07/23 08:58:06;;;;;;;8.15;7.35;;;36.60;66.20;;;;;;5074500;28;20727;-82
2022/07/23 09:00:56;;;;;;;10.45;7.00;;;36.90;66.20;;;;;;5066546;28;20224;-84
2022/07/23 09:03:47;;;;;;;10.52;7.40;;;37.30;64.50;;;;;;5082691;28;20235;-83
2022/07/23 09:06:39;;;;;;;10.40;7.13;;;37.80;62.00;;;;;;5069001;28;20223;-82
2022/07/23 09:09:29;;;;;;;8.25;7.35;;;38.00;61.80;;;;;;5065686;28;20223;-81
2022/07/23 09:12:18;;;;;;;9.07;7.03;;;38.20;60.20;;;;;;5065100;28;20231;-83
2022/07/23 09:15:09;;;;;;;6.93;6.32;;;39.10;57.80;;;;;;5053717;28;20219;-83
2022/07/23 09:17:57;;;;;;;7.50;6.28;;;39.30;55.90;;;;;;5061416;28;20239;-82
2022/07/23 09:20:48;;;;;;;7.78;7.03;;;39.90;55.10;;;;;;5062172;28;20220;-83
2022/07/23 09:23:43;;;;;;;7.50;6.38;;;40.50;52.40;;;;;;5043554;28;20220;-84
2022/07/23 09:26:35;;;;;;;6.60;6.03;;;41.00;51.20;;;;;;5062124;28;20237;-83
2022/07/23 09:29:25;;;;;;;7.72;5.43;;;41.20;51.20;;;;;;5064181;28;20273;-83
2022/07/23 09:32:15;;;;;;;9.80;6.00;;;41.30;52.50;;;;;;5052440;28;20223;-84
2022/07/23 09:35:04;;;;;;;6.15;5.63;;;41.60;50.70;;;;;;5063117;28;20227;-82
2022/07/23 09:38:04;;;;;;;6.28;5.65;;;41.90;48.90;;;;;;5050352;28;20216;-84
2022/07/23 09:41:07;;;;;;;8.73;5.93;;;42.00;48.50;;;;;;5062731;28;20226;-84
2022/07/23 09:43:57;;;;;;;6.60;5.90;;;42.30;47.50;;;;;;5060441;28;20579;-81
2022/07/23 09:46:47;;;;;;;6.15;5.28;;;41.80;49.10;;;;;;5064016;28;20816;-80
2022/07/23 09:49:36;;;;;;;10.02;5.65;;;42.30;46.30;;;;;;5068518;28;20279;-82
2022/07/23 09:52:27;;;;;;;7.85;5.07;;;42.90;46.60;;;;;;5097037;28;20242;-81
2022/07/23 09:55:34;;;;;;;16.13;4.97;;;42.80;45.30;;;;;;5079017;28;20702;-82
2022/07/23 09:58:26;;;;;;;8.65;5.30;;;42.80;45.50;;;;;;5060571;28;20227;-81
2022/07/23 10:01:15;;;;;;;9.07;5.43;;;42.70;44.90;;;;;;5049486;28;20581;-84
2022/07/23 10:04:06;;;;;;;8.70;4.97;;;42.30;44.90;;;;;;5063576;28;20220;-83
2022/07/23 10:07:29;;;;;;;7.25;5.32;;;42.40;45.80;;;;;;5060429;28;20220;-82
2022/07/23 10:10:40;;;;;;;11.68;5.38;;;42.30;45.80;;;;;;5058078;28;21178;-82
2022/07/23 10:13:59;;;;;;;7.97;5.05;;;41.90;47.30;;;;;;5056835;28;20246;-85
2022/07/23 10:16:59;;;;;;;9.43;5.07;;;41.50;46.80;;;;;;5044779;28;21163;-81
2022/07/23 10:19:48;;;;;;;6.47;5.38;;;40.50;48.30;;;;;;5058205;28;20243;-81
2022/07/23 10:22:43;;;;;;;8.30;5.40;;;40.20;47.80;;;;;;5055130;28;20242;-82
2022/07/23 10:25:38;;;;;;;7.60;5.20;;;40.10;48.80;;;;;;5069845;28;27052;-81
2022/07/23 10:28:53;;;;;;;7.55;5.28;;;40.20;47.50;;;;;;5056230;28;20231;-81
2022/07/23 10:31:56;;;;;;;8.63;5.20;;;41.20;46.40;;;;;;5058614;28;20222;-83
2022/07/23 10:34:58;;;;;;;5.97;5.38;;;41.80;45.10;;;;;;5040007;28;20299;-85
2022/07/23 10:37:50;;;;;;;5.88;5.22;;;42.10;44.50;;;;;;5057689;28;20681;-85
2022/07/23 10:40:55;;;;;;;7.20;5.72;;;42.00;45.20;;;;;;5040526;28;20219;-85
2022/07/23 10:43:45;;;;;;;6.93;5.40;;;41.60;47.00;;;;;;5043009;28;20223;-84
2022/07/23 10:46:44;;;;;;;6.43;5.63;;;42.10;45.90;;;;;;5058011;28;21809;-85
2022/07/23 10:49:34;;;;;;;8.30;5.05;;;42.40;46.90;;;;;;5038597;28;20223;-83
2022/07/23 10:52:25;;;;;;;6.10;4.95;;;42.20;45.40;;;;;;5060494;28;20253;-84
2022/07/23 10:55:41;;;;;;;6.53;5.72;;;42.40;45.70;;;;;;5044762;28;20223;-84
2022/07/23 10:58:49;;;;;;;5.60;5.07;;;42.40;45.60;;;;;;5050667;28;20219;-84
2022/07/23 11:01:40;;;;;;;5.63;5.03;;;43.00;45.30;;;;;;5045159;28;20229;-85
2022/07/23 11:04:50;;;;;;;6.70;5.07;;;42.90;44.70;;;;;;5068920;28;25788;-83
2022/07/23 11:08:14;;;;;;;9.63;5.05;;;42.90;44.10;;;;;;5039032;28;20215;-85
2022/07/23 11:11:11;;;;;;;6.93;5.70;;;43.40;44.90;;;;;;5059578;28;20233;-83
2022/07/23 11:14:01;;;;;;;8.70;5.25;;;43.50;43.60;;;;;;5059524;28;20265;-84
2022/07/23 11:16:56;;;;;;;6.78;5.07;;;43.40;44.60;;;;;;5071468;28;20947;-84
2022/07/23 11:20:18;;;;;;;5.85;5.10;;;42.60;45.60;;;;;;5045380;28;20227;-82
2022/07/23 11:23:07;;;;;;;5.68;5.10;;;42.50;45.10;;;;;;5049939;28;20287;-83
2022/07/23 11:25:56;;;;;;;8.60;5.47;;;41.70;45.70;;;;;;5049938;28;20222;-83
2022/07/23 11:28:44;;;;;;;5.88;5.38;;;41.80;45.70;;;;;;5059940;28;20272;-82
2022/07/23 11:31:36;;;;;;;6.03;4.82;;;43.00;45.40;;;;;;5060087;28;20791;-83
2022/07/23 11:34:32;;;;;;;7.00;5.38;;;43.60;45.10;;;;;;5049387;28;20224;-84
2022/07/23 11:37:46;;;;;;;10.40;5.75;;;43.50;45.50;;;;;;5062936;28;21180;-83
2022/07/23 11:40:35;;;;;;;6.63;5.65;;;42.60;45.60;;;;;;5059260;28;20223;-83
2022/07/23 11:43:25;;;;;;;8.63;5.18;;;42.10;46.00;;;;;;5062579;28;20216;-82
2022/07/23 11:46:13;;;;;;;5.75;5.07;;;42.50;47.00;;;;;;5074461;28;20685;-84
2022/07/23 11:49:04;;;;;;;6.05;5.40;;;42.40;46.40;;;;;;5047446;28;20647;-84
2022/07/23 11:52:06;;;;;;;8.50;5.65;;;42.90;46.10;;;;;;5061956;28;20224;-82
2022/07/23 11:54:57;;;;;;;5.63;4.82;;;43.10;43.40;;;;;;5060299;28;20276;-84
2022/07/23 11:57:46;;;;;;;5.60;5.03;;;43.80;42.10;;;;;;5047736;28;20231;-84
2022/07/23 12:00:35;;;;;;;6.15;5.15;;;43.70;43.40;;;;;;5048279;28;20229;-83
2022/07/23 12:03:28;;;;;;;7.50;4.70;;;43.60;42.50;;;;;;5044458;28;21243;-83
2022/07/23 12:06:19;;;;;;;7.35;5.30;;;43.20;43.10;;;;;;5061210;28;20632;-83
2022/07/23 12:09:08;;;;;;;6.88;5.00;;;43.70;43.40;;;;;;5062736;28;20306;-83
2022/07/23 12:12:00;;;;;;;6.38;5.45;;;44.50;43.00;;;;;;5048663;28;20227;-84
2022/07/23 12:14:51;;;;;;;6.90;4.78;;;44.00;41.90;;;;;;5042839;28;20230;-83
2022/07/23 12:17:42;;;;;;;5.43;4.93;;;44.10;42.60;;;;;;5049751;28;20288;-84
2022/07/23 12:20:41;;;;;;;5.10;4.60;;;43.90;41.50;;;;;;5046582;28;20369;-83
2022/07/23 12:23:31;;;;;;;6.05;5.43;;;43.80;42.10;;;;;;5063786;28;20310;-82
2022/07/23 12:26:20;;;;;;;5.88;5.00;;;43.60;42.80;;;;;;5059462;28;20238;-83
2022/07/23 12:29:08;;;;;;;6.47;4.93;;;42.50;43.40;;;;;;5044446;28;20778;-83
2022/07/23 12:31:57;;;;;;;5.60;4.97;;;41.30;45.00;;;;;;5060372;28;20216;-84
2022/07/23 12:34:46;;;;;;;7.35;4.93;;;40.90;46.10;;;;;;5059466;28;20285;-82
2022/07/23 12:37:36;;;;;;;6.30;5.70;;;41.00;46.30;;;;;;5062322;28;20246;-83
2022/07/23 12:40:30;;;;;;;7.90;5.68;;;40.80;46.30;;;;;;5065527;28;20211;-82
2022/07/23 12:43:21;;;;;;;9.90;8.82;;;40.60;46.50;;;;;;5048020;28;20233;-84
2022/07/23 12:46:14;;;;;;;7.88;5.05;;;40.20;48.00;;;;;;5061398;28;20238;-83
2022/07/23 12:49:03;;;;;;;11.73;5.10;;;39.30;47.30;;;;;;5061705;28;20306;-83
2022/07/23 12:51:53;;;;;;;6.45;4.95;;;38.40;48.70;;;;;;5060918;28;20299;-84
2022/07/23 12:54:42;;;;;;;6.20;5.70;;;38.10;50.00;;;;;;5064146;28;20230;-84
2022/07/23 13:00:25;;;;;;;8.02;6.18;;;38.10;49.70;;;;;;5073089;27;20633;-69
2022/07/23 13:03:22;;;;;;;8.85;6.20;;;36.70;52.00;;;;;;5065520;28;20227;-70
2022/07/23 13:06:12;;;;;;;8.65;6.35;;;36.30;53.70;;;;;;5067425;28;20707;-70
2022/07/23 13:09:03;;;;;;;10.30;6.40;;;36.30;53.50;;;;;;5082150;28;20264;-68
2022/07/23 13:11:54;;;;;;;11.02;6.40;;;36.60;51.40;;;;;;5062154;28;20221;-70
2022/07/23 13:15:03;;;;;;;16.90;6.63;;;36.70;50.80;;;;;;5067275;28;20234;-70
2022/07/23 13:17:53;;;;;;;7.95;7.18;;;36.40;53.00;;;;;;5065052;28;20724;-70
2022/07/23 13:20:42;;;;;;;8.57;6.60;;;35.90;54.00;;;;;;5065543;28;20557;-69
2022/07/23 13:23:34;;;;;;;7.63;6.40;;;35.60;53.00;;;;;;5068001;28;20212;-71
2022/07/23 13:26:23;;;;;;;7.75;7.03;;;35.60;54.60;;;;;;5064105;28;20215;-71
2022/07/23 13:29:12;;;;;;;8.88;7.88;;;34.90;55.80;;;;;;5078118;28;20227;-69
2022/07/23 13:32:01;;;;;;;7.90;7.10;;;34.80;56.90;;;;;;5077705;27;20224;-69
2022/07/23 13:34:59;;;;;;;8.50;7.80;;;34.90;55.70;;;;;;5076046;28;24028;-70
2022/07/23 13:37:49;;;;;;;11.00;8.10;;;35.00;56.00;;;;;;5077321;28;20215;-70
2022/07/23 13:40:40;;;;;;;8.32;7.53;;;34.70;56.50;;;;;;5067407;28;20316;-70
2022/07/23 13:43:28;;;;;;;8.55;7.85;;;34.60;58.50;;;;;;4993959;28;20261;-69
2022/07/23 13:46:23;;;;;;;9.98;7.47;;;34.60;57.50;;;;;;4970045;28;20593;-70
2022/07/23 13:49:12;;;;;;;7.70;7.00;;;34.90;55.90;;;;;;4964056;28;20369;-70
2022/07/23 13:52:03;;;;;;;11.25;6.60;;;35.00;54.50;;;;;;4967778;28;20219;-70
2022/07/23 13:54:55;;;;;;;10.63;7.45;;;35.20;53.70;;;;;;4966992;28;20230;-70
2022/07/23 13:57:44;;;;;;;7.85;7.25;;;35.20;53.90;;;;;;4965345;28;20215;-71
2022/07/23 14:00:35;;;;;;;8.80;7.97;;;34.80;55.70;;;;;;5062498;28;20294;-71
2022/07/23 14:03:40;;;;;;;7.68;7.00;;;34.80;56.40;;;;;;5049671;28;20220;-71
2022/07/23 14:06:29;;;;;;;8.05;7.35;;;34.80;54.40;;;;;;5049755;28;20235;-71
2022/07/23 14:09:22;;;;;;;8.68;7.80;;;34.60;57.00;;;;;;4962024;28;20231;-70
2022/07/23 14:12:12;;;;;;;9.23;8.32;;;34.20;57.80;;;;;;4976048;28;20234;-71
2022/07/23 14:15:08;;;;;;;9.95;8.02;;;33.70;58.20;;;;;;4950088;28;20223;-71
2022/07/23 14:18:17;;;;;;;10.35;8.35;;;33.50;58.70;;;;;;4969076;28;20238;-71
2022/07/23 14:21:05;;;;;;;14.38;8.00;;;33.40;59.20;;;;;;5054296;28;20247;-71
2022/07/23 14:23:54;;;;;;;10.65;7.80;;;33.30;58.90;;;;;;5062578;28;20216;-71
2022/07/23 14:26:44;;;;;;;8.82;7.85;;;32.90;59.70;;;;;;5052825;28;20219;-71
2022/07/23 14:29:33;;;;;;;8.55;7.45;;;33.00;60.90;;;;;;5051389;28;21046;-71
2022/07/23 14:32:22;;;;;;;8.70;7.95;;;32.90;61.80;;;;;;5066864;28;20293;-70
2022/07/23 14:35:11;;;;;;;9.88;7.97;;;32.70;60.50;;;;;;5052562;28;20724;-68
2022/07/23 14:38:00;;;;;;;9.70;7.53;;;32.80;62.60;;;;;;5066031;28;20230;-70
2022/07/23 14:40:48;;;;;;;38.15;9.57;;;32.60;62.30;;;;;;5064492;28;20258;-70
2022/07/23 14:43:38;;;;;;;48.17;8.43;;;32.30;63.60;;;;;;5067538;28;20235;-71
2022/07/23 14:46:28;;;;;;;40.53;7.93;;;31.10;72.80;;;;;;5063831;28;20220;-69